sensor_id;sensor_type;location;lat;lon;timestamp;temperature;humidity
27795;DHT22;15176;50.844;4.412;2023-04-16T00:02:14;11.10;99.90
27795;DHT22;15176;50.844;4.412;2023-04-16T00:04:40;11.00;99.90
27795;DHT22;15176;50.844;4.412;2023-04-16T00:07:06;10.90;99.90
27795;DHT22;15176;50.844;4.412;2023-04-16T00:09:32;10.90;99.90
27795;DHT22;15176;50.844;4.412;2023-04-16T00:11:57;10.80;99.90
27795;DHT22;15176;50.844;4.412;2023-04-16T00:14:24;11.00;99.90
27795;DHT22;15176;50.844;4.412;2023-04-16T00:16:49;10.60;99.90
27795;DHT22;15176;50.844;4.412;2023-04-16T00:19:15;10.70;99.90
27795;DHT22;15176;50.844;4.412;2023-04-16T00:21:41;10.70;99.90
27795;DHT22;15176;50.844;4.412;2023-04-16T00:24:07;10.80;99.90
27795;DHT22;15176;50.844;4.412;2023-04-16T00:26:32;10.80;99.90
27795;DHT22;15176;50.844;4.412;2023-04-16T00:28:59;10.80;99.90
27795;DHT22;15176;50.844;4.412;2023-04-16T00:31:26;11.00;99.90
27795;DHT22;15176;50.844;4.412;2023-04-16T00:33:52;10.80;99.90
27795;DHT22;15176;50.844;4.412;2023-04-16T00:36:18;10.80;99.90
27795;DHT22;15176;50.844;4.412;2023-04-16T00:38:44;10.80;99.90
27795;DHT22;15176;50.844;4.412;2023-04-16T00:41:11;10.90;99.90
27795;DHT22;15176;50.844;4.412;2023-04-16T00:43:37;10.80;99.90
27795;DHT22;15176;50.844;4.412;2023-04-16T00:46:04;10.90;99.90
27795;DHT22;15176;50.844;4.412;2023-04-16T00:48:32;11.00;99.90
27795;DHT22;15176;50.844;4.412;2023-04-16T00:50:58;10.80;99.90
27795;DHT22;15176;50.844;4.412;2023-04-16T00:53:26;11.00;99.90
27795;DHT22;15176;50.844;4.412;2023-04-16T00:55:52;10.70;99.90
27795;DHT22;15176;50.844;4.412;2023-04-16T00:58:20;10.50;99.90
27795;DHT22;15176;50.844;4.412;2023-04-16T01:00:46;10.50;99.90
27795;DHT22;15176;50.844;4.412;2023-04-16T01:03:12;10.60;99.90
27795;DHT22;15176;50.844;4.412;2023-04-16T01:05:38;10.70;99.90
27795;DHT22;15176;50.844;4.412;2023-04-16T01:08:04;10.80;99.90
27795;DHT22;15176;50.844;4.412;2023-04-16T01:10:30;10.70;99.90
27795;DHT22;15176;50.844;4.412;2023-04-16T01:12:55;11.00;99.90
27795;DHT22;15176;50.844;4.412;2023-04-16T01:15:21;11.10;99.90
27795;DHT22;15176;50.844;4.412;2023-04-16T01:17:47;11.10;99.90
27795;DHT22;15176;50.844;4.412;2023-04-16T01:20:14;11.00;99.90
27795;DHT22;15176;50.844;4.412;2023-04-16T01:22:39;10.90;99.90
27795;DHT22;15176;50.844;4.412;2023-04-16T01:25:05;10.70;99.90
27795;DHT22;15176;50.844;4.412;2023-04-16T01:27:31;10.80;99.90
27795;DHT22;15176;50.844;4.412;2023-04-16T01:29:57;11.10;99.90
27795;DHT22;15176;50.844;4.412;2023-04-16T01:32:22;10.80;99.90
27795;DHT22;15176;50.844;4.412;2023-04-16T01:34:48;10.60;99.90
27795;DHT22;15176;50.844;4.412;2023-04-16T01:37:14;10.60;99.90
27795;DHT22;15176;50.844;4.412;2023-04-16T01:39:40;10.50;99.90
27795;DHT22;15176;50.844;4.412;2023-04-16T01:42:07;10.60;99.90
27795;DHT22;15176;50.844;4.412;2023-04-16T01:44:32;10.40;99.90
27795;DHT22;15176;50.844;4.412;2023-04-16T01:46:59;10.60;99.90
27795;DHT22;15176;50.844;4.412;2023-04-16T01:49:25;10.50;99.90
27795;DHT22;15176;50.844;4.412;2023-04-16T01:51:52;10.50;99.90
27795;DHT22;15176;50.844;4.412;2023-04-16T01:54:17;10.60;99.90
27795;DHT22;15176;50.844;4.412;2023-04-16T01:56:43;10.50;99.90
27795;DHT22;15176;50.844;4.412;2023-04-16T01:59:09;10.30;99.90
27795;DHT22;15176;50.844;4.412;2023-04-16T02:01:35;10.30;99.90
27795;DHT22;15176;50.844;4.412;2023-04-16T02:04:00;10.50;99.90
27795;DHT22;15176;50.844;4.412;2023-04-16T02:06:26;10.60;99.90
27795;DHT22;15176;50.844;4.412;2023-04-16T02:08:51;10.50;99.90
27795;DHT22;15176;50.844;4.412;2023-04-16T02:11:17;10.60;99.90
27795;DHT22;15176;50.844;4.412;2023-04-16T02:13:43;10.50;99.90
27795;DHT22;15176;50.844;4.412;2023-04-16T02:16:09;10.70;99.90
27795;DHT22;15176;50.844;4.412;2023-04-16T02:18:35;10.60;99.90
27795;DHT22;15176;50.844;4.412;2023-04-16T02:21:03;10.40;99.90
27795;DHT22;15176;50.844;4.412;2023-04-16T02:23:30;10.70;99.90
27795;DHT22;15176;50.844;4.412;2023-04-16T02:25:56;10.60;99.90
27795;DHT22;15176;50.844;4.412;2023-04-16T02:28:22;10.90;99.90
27795;DHT22;15176;50.844;4.412;2023-04-16T02:30:48;11.00;99.90
27795;DHT22;15176;50.844;4.412;2023-04-16T02:33:13;10.80;99.90
27795;DHT22;15176;50.844;4.412;2023-04-16T02:35:40;10.70;99.90
27795;DHT22;15176;50.844;4.412;2023-04-16T02:38:06;10.90;99.90
27795;DHT22;15176;50.844;4.412;2023-04-16T02:40:32;10.60;99.90
27795;DHT22;15176;50.844;4.412;2023-04-16T02:42:58;10.90;99.90
27795;DHT22;15176;50.844;4.412;2023-04-16T02:45:24;11.00;99.90
27795;DHT22;15176;50.844;4.412;2023-04-16T02:47:51;11.10;99.90
27795;DHT22;15176;50.844;4.412;2023-04-16T02:50:17;10.60;99.90
27795;DHT22;15176;50.844;4.412;2023-04-16T02:52:43;10.60;99.90
27795;DHT22;15176;50.844;4.412;2023-04-16T02:55:09;10.80;99.90
27795;DHT22;15176;50.844;4.412;2023-04-16T02:57:35;10.90;99.90
27795;DHT22;15176;50.844;4.412;2023-04-16T03:00:01;11.20;99.90
27795;DHT22;15176;50.844;4.412;2023-04-16T03:02:29;11.00;99.90
27795;DHT22;15176;50.844;4.412;2023-04-16T03:04:55;11.00;99.90
27795;DHT22;15176;50.844;4.412;2023-04-16T03:07:21;11.00;99.90
27795;DHT22;15176;50.844;4.412;2023-04-16T03:09:46;11.20;99.90
27795;DHT22;15176;50.844;4.412;2023-04-16T03:12:12;11.20;99.90
27795;DHT22;15176;50.844;4.412;2023-04-16T03:14:37;11.10;99.90
27795;DHT22;15176;50.844;4.412;2023-04-16T03:17:03;11.10;99.90
27795;DHT22;15176;50.844;4.412;2023-04-16T03:19:29;11.00;99.90
27795;DHT22;15176;50.844;4.412;2023-04-16T03:21:54;10.80;99.90
27795;DHT22;15176;50.844;4.412;2023-04-16T03:24:20;11.00;99.90
27795;DHT22;15176;50.844;4.412;2023-04-16T03:26:46;10.90;99.90
27795;DHT22;15176;50.844;4.412;2023-04-16T03:29:11;10.90;99.90
27795;DHT22;15176;50.844;4.412;2023-04-16T03:31:37;10.90;99.90
27795;DHT22;15176;50.844;4.412;2023-04-16T03:34:03;11.10;99.90
27795;DHT22;15176;50.844;4.412;2023-04-16T03:36:28;10.90;99.90
27795;DHT22;15176;50.844;4.412;2023-04-16T03:38:54;11.10;99.90
27795;DHT22;15176;50.844;4.412;2023-04-16T03:41:21;10.80;99.90
27795;DHT22;15176;50.844;4.412;2023-04-16T03:43:47;11.00;99.90
27795;DHT22;15176;50.844;4.412;2023-04-16T03:46:12;10.70;99.90
27795;DHT22;15176;50.844;4.412;2023-04-16T03:48:38;10.50;99.90
27795;DHT22;15176;50.844;4.412;2023-04-16T03:51:03;10.50;99.90
27795;DHT22;15176;50.844;4.412;2023-04-16T03:53:29;10.30;99.90
27795;DHT22;15176;50.844;4.412;2023-04-16T03:55:55;10.60;99.90
27795;DHT22;15176;50.844;4.412;2023-04-16T03:58:20;10.80;99.90
27795;DHT22;15176;50.844;4.412;2023-04-16T04:00:46;10.80;99.90
27795;DHT22;15176;50.844;4.412;2023-04-16T04:03:12;10.30;99.90
27795;DHT22;15176;50.844;4.412;2023-04-16T04:05:41;10.30;99.90
27795;DHT22;15176;50.844;4.412;2023-04-16T04:08:07;10.70;99.90
27795;DHT22;15176;50.844;4.412;2023-04-16T04:10:35;10.50;99.90
27795;DHT22;15176;50.844;4.412;2023-04-16T04:13:03;10.40;99.90
27795;DHT22;15176;50.844;4.412;2023-04-16T04:15:28;10.50;99.90
27795;DHT22;15176;50.844;4.412;2023-04-16T04:17:54;10.10;99.90
27795;DHT22;15176;50.844;4.412;2023-04-16T04:20:20;10.40;99.90
27795;DHT22;15176;50.844;4.412;2023-04-16T04:22:46;10.40;99.90
27795;DHT22;15176;50.844;4.412;2023-04-16T04:25:12;10.20;99.90
27795;DHT22;15176;50.844;4.412;2023-04-16T04:27:37;10.50;99.90
27795;DHT22;15176;50.844;4.412;2023-04-16T04:30:05;10.50;99.90
27795;DHT22;15176;50.844;4.412;2023-04-16T04:32:31;10.00;99.90
27795;DHT22;15176;50.844;4.412;2023-04-16T04:34:58;9.80;99.90
27795;DHT22;15176;50.844;4.412;2023-04-16T04:37:24;9.80;99.90
27795;DHT22;15176;50.844;4.412;2023-04-16T04:39:50;9.60;99.90
27795;DHT22;15176;50.844;4.412;2023-04-16T04:42:19;9.80;99.90
27795;DHT22;15176;50.844;4.412;2023-04-16T04:44:45;10.00;99.90
27795;DHT22;15176;50.844;4.412;2023-04-16T04:47:11;9.80;99.90
27795;DHT22;15176;50.844;4.412;2023-04-16T04:49:38;9.80;99.90
27795;DHT22;15176;50.844;4.412;2023-04-16T04:52:04;9.80;99.90
27795;DHT22;15176;50.844;4.412;2023-04-16T04:54:32;9.80;99.90
27795;DHT22;15176;50.844;4.412;2023-04-16T04:56:57;10.00;99.90
27795;DHT22;15176;50.844;4.412;2023-04-16T04:59:24;10.30;99.90
27795;DHT22;15176;50.844;4.412;2023-04-16T05:01:50;10.60;99.90
27795;DHT22;15176;50.844;4.412;2023-04-16T05:04:16;10.70;99.90
27795;DHT22;15176;50.844;4.412;2023-04-16T05:06:42;10.90;99.90
27795;DHT22;15176;50.844;4.412;2023-04-16T05:09:08;10.60;99.90
27795;DHT22;15176;50.844;4.412;2023-04-16T05:11:40;10.40;99.90
27795;DHT22;15176;50.844;4.412;2023-04-16T05:14:06;10.50;99.90
27795;DHT22;15176;50.844;4.412;2023-04-16T05:16:34;10.40;99.90
27795;DHT22;15176;50.844;4.412;2023-04-16T05:19:00;10.50;99.90
27795;DHT22;15176;50.844;4.412;2023-04-16T05:21:26;10.40;99.90
27795;DHT22;15176;50.844;4.412;2023-04-16T05:23:52;10.30;99.90
27795;DHT22;15176;50.844;4.412;2023-04-16T05:26:19;10.30;99.90
27795;DHT22;15176;50.844;4.412;2023-04-16T05:28:45;10.50;99.90
27795;DHT22;15176;50.844;4.412;2023-04-16T05:31:11;10.90;99.90
27795;DHT22;15176;50.844;4.412;2023-04-16T05:33:36;10.90;99.90
27795;DHT22;15176;50.844;4.412;2023-04-16T05:36:02;10.60;99.90
27795;DHT22;15176;50.844;4.412;2023-04-16T05:38:29;10.70;99.90
27795;DHT22;15176;50.844;4.412;2023-04-16T05:40:55;10.60;99.90
27795;DHT22;15176;50.844;4.412;2023-04-16T05:43:20;10.60;99.90
27795;DHT22;15176;50.844;4.412;2023-04-16T05:45:46;10.40;99.90
27795;DHT22;15176;50.844;4.412;2023-04-16T05:48:12;10.50;99.90
27795;DHT22;15176;50.844;4.412;2023-04-16T05:50:38;10.70;99.90
27795;DHT22;15176;50.844;4.412;2023-04-16T05:53:08;10.80;99.90
27795;DHT22;15176;50.844;4.412;2023-04-16T05:55:34;10.70;99.90
27795;DHT22;15176;50.844;4.412;2023-04-16T05:58:01;10.70;99.90
27795;DHT22;15176;50.844;4.412;2023-04-16T06:00:29;10.90;99.90
27795;DHT22;15176;50.844;4.412;2023-04-16T06:02:55;11.00;99.90
27795;DHT22;15176;50.844;4.412;2023-04-16T06:05:20;11.00;99.90
27795;DHT22;15176;50.844;4.412;2023-04-16T06:07:46;10.80;99.90
27795;DHT22;15176;50.844;4.412;2023-04-16T06:10:12;10.90;99.90
27795;DHT22;15176;50.844;4.412;2023-04-16T06:12:38;10.70;99.90
27795;DHT22;15176;50.844;4.412;2023-04-16T06:15:04;10.70;99.90
27795;DHT22;15176;50.844;4.412;2023-04-16T06:17:30;10.80;99.90
27795;DHT22;15176;50.844;4.412;2023-04-16T06:19:55;10.80;99.90
27795;DHT22;15176;50.844;4.412;2023-04-16T06:22:21;10.50;99.90
27795;DHT22;15176;50.844;4.412;2023-04-16T06:24:48;10.60;99.90
27795;DHT22;15176;50.844;4.412;2023-04-16T06:27:13;10.70;99.90
27795;DHT22;15176;50.844;4.412;2023-04-16T06:29:39;10.70;99.90
27795;DHT22;15176;50.844;4.412;2023-04-16T06:32:06;10.60;99.90
27795;DHT22;15176;50.844;4.412;2023-04-16T06:34:32;10.50;99.90
27795;DHT22;15176;50.844;4.412;2023-04-16T06:36:57;10.30;99.90
27795;DHT22;15176;50.844;4.412;2023-04-16T06:39:23;10.30;99.90
27795;DHT22;15176;50.844;4.412;2023-04-16T06:41:50;10.20;99.90
27795;DHT22;15176;50.844;4.412;2023-04-16T06:44:15;10.30;99.90
27795;DHT22;15176;50.844;4.412;2023-04-16T06:46:41;10.60;99.90
27795;DHT22;15176;50.844;4.412;2023-04-16T06:49:07;10.70;99.90
27795;DHT22;15176;50.844;4.412;2023-04-16T06:51:32;10.70;99.90
27795;DHT22;15176;50.844;4.412;2023-04-16T06:53:59;10.70;99.90
27795;DHT22;15176;50.844;4.412;2023-04-16T06:56:25;10.60;99.90
27795;DHT22;15176;50.844;4.412;2023-04-16T06:58:50;10.80;99.90
27795;DHT22;15176;50.844;4.412;2023-04-16T07:01:17;10.80;99.90
27795;DHT22;15176;50.844;4.412;2023-04-16T07:03:43;10.60;99.90
27795;DHT22;15176;50.844;4.412;2023-04-16T07:06:09;10.70;99.90
27795;DHT22;15176;50.844;4.412;2023-04-16T07:08:35;10.70;99.90
27795;DHT22;15176;50.844;4.412;2023-04-16T07:11:00;10.70;99.90
27795;DHT22;15176;50.844;4.412;2023-04-16T07:13:26;10.40;99.90
27795;DHT22;15176;50.844;4.412;2023-04-16T07:15:52;10.20;99.90
27795;DHT22;15176;50.844;4.412;2023-04-16T07:18:18;10.30;99.90
27795;DHT22;15176;50.844;4.412;2023-04-16T07:20:43;10.40;99.90
27795;DHT22;15176;50.844;4.412;2023-04-16T07:23:10;10.60;99.90
27795;DHT22;15176;50.844;4.412;2023-04-16T07:25:36;10.80;99.90
27795;DHT22;15176;50.844;4.412;2023-04-16T07:28:03;10.80;99.90
27795;DHT22;15176;50.844;4.412;2023-04-16T07:30:29;10.90;99.90
27795;DHT22;15176;50.844;4.412;2023-04-16T07:32:59;11.00;99.90
27795;DHT22;15176;50.844;4.412;2023-04-16T07:35:26;11.10;99.90
27795;DHT22;15176;50.844;4.412;2023-04-16T07:37:51;10.80;99.90
27795;DHT22;15176;50.844;4.412;2023-04-16T07:40:17;10.80;99.90
27795;DHT22;15176;50.844;4.412;2023-04-16T07:42:43;10.70;99.90
27795;DHT22;15176;50.844;4.412;2023-04-16T07:45:09;10.40;99.90
27795;DHT22;15176;50.844;4.412;2023-04-16T07:47:36;10.40;99.90
27795;DHT22;15176;50.844;4.412;2023-04-16T07:50:02;10.60;99.90
27795;DHT22;15176;50.844;4.412;2023-04-16T07:52:28;10.70;99.90
27795;DHT22;15176;50.844;4.412;2023-04-16T07:54:54;10.90;99.90
27795;DHT22;15176;50.844;4.412;2023-04-16T07:57:20;10.90;99.90
27795;DHT22;15176;50.844;4.412;2023-04-16T07:59:45;11.00;99.90
27795;DHT22;15176;50.844;4.412;2023-04-16T08:02:13;10.90;99.90
27795;DHT22;15176;50.844;4.412;2023-04-16T08:04:41;10.80;99.90
27795;DHT22;15176;50.844;4.412;2023-04-16T08:07:07;10.90;99.90
27795;DHT22;15176;50.844;4.412;2023-04-16T08:09:33;11.00;99.90
27795;DHT22;15176;50.844;4.412;2023-04-16T08:12:00;10.80;99.90
27795;DHT22;15176;50.844;4.412;2023-04-16T08:14:26;10.90;99.90
27795;DHT22;15176;50.844;4.412;2023-04-16T08:16:51;10.70;99.90
27795;DHT22;15176;50.844;4.412;2023-04-16T08:19:18;10.90;99.90
27795;DHT22;15176;50.844;4.412;2023-04-16T08:21:43;11.10;99.90
27795;DHT22;15176;50.844;4.412;2023-04-16T08:24:09;11.10;99.90
27795;DHT22;15176;50.844;4.412;2023-04-16T08:26:35;11.10;99.90
27795;DHT22;15176;50.844;4.412;2023-04-16T08:29:00;11.10;99.90
27795;DHT22;15176;50.844;4.412;2023-04-16T08:31:26;11.20;99.90
27795;DHT22;15176;50.844;4.412;2023-04-16T08:33:52;11.10;99.90
27795;DHT22;15176;50.844;4.412;2023-04-16T08:36:19;11.10;99.90
27795;DHT22;15176;50.844;4.412;2023-04-16T08:38:45;11.00;99.90
27795;DHT22;15176;50.844;4.412;2023-04-16T08:41:12;11.00;99.90
27795;DHT22;15176;50.844;4.412;2023-04-16T08:43:43;11.00;99.90
27795;DHT22;15176;50.844;4.412;2023-04-16T08:46:12;10.80;99.90
27795;DHT22;15176;50.844;4.412;2023-04-16T08:48:41;10.80;99.90
27795;DHT22;15176;50.844;4.412;2023-04-16T08:51:09;10.60;99.90
27795;DHT22;15176;50.844;4.412;2023-04-16T08:53:52;10.50;99.90
27795;DHT22;15176;50.844;4.412;2023-04-16T08:56:22;10.60;99.90
27795;DHT22;15176;50.844;4.412;2023-04-16T08:58:50;10.60;99.90
27795;DHT22;15176;50.844;4.412;2023-04-16T09:01:19;10.50;99.90
27795;DHT22;15176;50.844;4.412;2023-04-16T09:03:46;10.50;99.90
27795;DHT22;15176;50.844;4.412;2023-04-16T09:06:14;10.70;99.90
27795;DHT22;15176;50.844;4.412;2023-04-16T09:08:43;11.00;99.90
27795;DHT22;15176;50.844;4.412;2023-04-16T09:11:11;11.10;99.90
27795;DHT22;15176;50.844;4.412;2023-04-16T09:13:37;10.80;99.90
27795;DHT22;15176;50.844;4.412;2023-04-16T09:16:04;10.80;99.90
27795;DHT22;15176;50.844;4.412;2023-04-16T09:18:30;10.80;99.90
27795;DHT22;15176;50.844;4.412;2023-04-16T09:20:56;10.80;99.90
27795;DHT22;15176;50.844;4.412;2023-04-16T09:23:22;10.70;99.90
27795;DHT22;15176;50.844;4.412;2023-04-16T09:25:50;11.00;99.90
27795;DHT22;15176;50.844;4.412;2023-04-16T09:28:42;11.00;99.90
27795;DHT22;15176;50.844;4.412;2023-04-16T09:31:13;11.10;99.90
27795;DHT22;15176;50.844;4.412;2023-04-16T09:33:39;10.90;99.90
27795;DHT22;15176;50.844;4.412;2023-04-16T09:36:05;11.10;99.90
27795;DHT22;15176;50.844;4.412;2023-04-16T09:38:53;11.20;99.90
27795;DHT22;15176;50.844;4.412;2023-04-16T09:41:27;11.20;99.90
27795;DHT22;15176;50.844;4.412;2023-04-16T09:43:55;11.10;99.90
27795;DHT22;15176;50.844;4.412;2023-04-16T09:46:55;11.10;99.90
27795;DHT22;15176;50.844;4.412;2023-04-16T09:49:15;11.10;99.90
27795;DHT22;15176;50.844;4.412;2023-04-16T09:51:44;10.90;99.90
27795;DHT22;15176;50.844;4.412;2023-04-16T09:54:10;11.20;99.90
27795;DHT22;15176;50.844;4.412;2023-04-16T09:56:45;11.10;99.90
27795;DHT22;15176;50.844;4.412;2023-04-16T09:59:21;11.20;99.90
27795;DHT22;15176;50.844;4.412;2023-04-16T10:01:47;11.40;99.90
27795;DHT22;15176;50.844;4.412;2023-04-16T10:04:18;11.50;99.90
27795;DHT22;15176;50.844;4.412;2023-04-16T10:07:04;11.30;99.90
27795;DHT22;15176;50.844;4.412;2023-04-16T10:09:37;11.30;99.90
27795;DHT22;15176;50.844;4.412;2023-04-16T10:12:04;11.40;99.90
27795;DHT22;15176;50.844;4.412;2023-04-16T10:14:31;11.20;99.90
27795;DHT22;15176;50.844;4.412;2023-04-16T10:16:58;11.40;99.90
27795;DHT22;15176;50.844;4.412;2023-04-16T10:19:24;11.40;99.90
27795;DHT22;15176;50.844;4.412;2023-04-16T10:21:51;11.60;99.90
27795;DHT22;15176;50.844;4.412;2023-04-16T10:24:17;11.40;99.90
27795;DHT22;15176;50.844;4.412;2023-04-16T10:26:44;11.40;99.90
27795;DHT22;15176;50.844;4.412;2023-04-16T10:29:13;11.20;99.90
27795;DHT22;15176;50.844;4.412;2023-04-16T10:31:39;11.20;99.90
27795;DHT22;15176;50.844;4.412;2023-04-16T10:34:07;11.20;99.90
27795;DHT22;15176;50.844;4.412;2023-04-16T10:36:37;11.10;99.90
27795;DHT22;15176;50.844;4.412;2023-04-16T10:39:09;11.10;99.90
27795;DHT22;15176;50.844;4.412;2023-04-16T10:41:36;11.30;99.90
27795;DHT22;15176;50.844;4.412;2023-04-16T10:44:06;11.30;99.90
27795;DHT22;15176;50.844;4.412;2023-04-16T10:46:41;11.20;99.90
27795;DHT22;15176;50.844;4.412;2023-04-16T10:49:17;11.00;99.90
27795;DHT22;15176;50.844;4.412;2023-04-16T10:51:56;10.90;99.90
27795;DHT22;15176;50.844;4.412;2023-04-16T10:54:26;11.00;99.90
27795;DHT22;15176;50.844;4.412;2023-04-16T10:56:55;11.10;99.90
27795;DHT22;15176;50.844;4.412;2023-04-16T10:59:22;11.00;99.90
27795;DHT22;15176;50.844;4.412;2023-04-16T11:01:54;10.90;99.90
27795;DHT22;15176;50.844;4.412;2023-04-16T11:12:23;11.20;99.90
27795;DHT22;15176;50.844;4.412;2023-04-16T11:14:53;11.10;99.90
27795;DHT22;15176;50.844;4.412;2023-04-16T11:17:20;11.40;99.90
27795;DHT22;15176;50.844;4.412;2023-04-16T11:19:46;11.40;99.90
27795;DHT22;15176;50.844;4.412;2023-04-16T11:22:13;11.40;99.90
27795;DHT22;15176;50.844;4.412;2023-04-16T11:24:39;11.20;99.90
27795;DHT22;15176;50.844;4.412;2023-04-16T11:27:06;11.10;99.90
27795;DHT22;15176;50.844;4.412;2023-04-16T11:29:32;11.40;99.90
27795;DHT22;15176;50.844;4.412;2023-04-16T11:31:57;11.30;99.90
27795;DHT22;15176;50.844;4.412;2023-04-16T11:34:23;11.40;99.90
27795;DHT22;15176;50.844;4.412;2023-04-16T11:36:50;11.20;99.90
27795;DHT22;15176;50.844;4.412;2023-04-16T11:39:17;11.50;99.90
27795;DHT22;15176;50.844;4.412;2023-04-16T11:42:02;11.60;99.90
27795;DHT22;15176;50.844;4.412;2023-04-16T11:44:27;11.60;99.90
27795;DHT22;15176;50.844;4.412;2023-04-16T11:46:54;11.50;99.90
27795;DHT22;15176;50.844;4.412;2023-04-16T11:49:26;11.50;99.90
27795;DHT22;15176;50.844;4.412;2023-04-16T11:51:52;11.90;99.90
27795;DHT22;15176;50.844;4.412;2023-04-16T11:54:20;11.70;99.90
27795;DHT22;15176;50.844;4.412;2023-04-16T11:56:46;11.70;99.90
27795;DHT22;15176;50.844;4.412;2023-04-16T11:59:20;11.40;99.90
27795;DHT22;15176;50.844;4.412;2023-04-16T12:01:51;11.50;99.90
27795;DHT22;15176;50.844;4.412;2023-04-16T12:04:22;11.60;99.90
27795;DHT22;15176;50.844;4.412;2023-04-16T12:07:13;11.60;99.90
27795;DHT22;15176;50.844;4.412;2023-04-16T12:09:40;11.50;99.90
27795;DHT22;15176;50.844;4.412;2023-04-16T12:14:52;11.60;99.90
27795;DHT22;15176;50.844;4.412;2023-04-16T12:17:22;11.60;99.90
27795;DHT22;15176;50.844;4.412;2023-04-16T12:19:59;11.50;99.90
27795;DHT22;15176;50.844;4.412;2023-04-16T12:22:35;11.40;99.90
27795;DHT22;15176;50.844;4.412;2023-04-16T12:25:19;11.20;99.90
27795;DHT22;15176;50.844;4.412;2023-04-16T12:27:50;11.20;99.90
27795;DHT22;15176;50.844;4.412;2023-04-16T12:30:18;11.40;99.90
27795;DHT22;15176;50.844;4.412;2023-04-16T12:32:48;11.40;99.90
27795;DHT22;15176;50.844;4.412;2023-04-16T12:35:28;11.70;99.90
27795;DHT22;15176;50.844;4.412;2023-04-16T12:37:54;11.90;99.90
27795;DHT22;15176;50.844;4.412;2023-04-16T12:40:20;11.70;99.90
27795;DHT22;15176;50.844;4.412;2023-04-16T12:42:45;11.60;99.90
27795;DHT22;15176;50.844;4.412;2023-04-16T12:45:11;11.70;99.90
27795;DHT22;15176;50.844;4.412;2023-04-16T12:47:37;11.60;99.90
27795;DHT22;15176;50.844;4.412;2023-04-16T12:50:03;11.50;99.90
27795;DHT22;15176;50.844;4.412;2023-04-16T12:52:28;11.40;99.90
27795;DHT22;15176;50.844;4.412;2023-04-16T12:54:54;11.70;99.90
27795;DHT22;15176;50.844;4.412;2023-04-16T12:57:20;11.70;99.90
27795;DHT22;15176;50.844;4.412;2023-04-16T12:59:45;11.70;99.90
27795;DHT22;15176;50.844;4.412;2023-04-16T13:02:12;11.70;99.90
27795;DHT22;15176;50.844;4.412;2023-04-16T13:04:37;11.50;99.90
27795;DHT22;15176;50.844;4.412;2023-04-16T13:07:03;11.50;99.90
27795;DHT22;15176;50.844;4.412;2023-04-16T13:09:29;11.60;99.90
27795;DHT22;15176;50.844;4.412;2023-04-16T13:11:55;11.50;99.90
27795;DHT22;15176;50.844;4.412;2023-04-16T13:14:20;11.40;99.90
27795;DHT22;15176;50.844;4.412;2023-04-16T13:16:46;11.60;99.90
27795;DHT22;15176;50.844;4.412;2023-04-16T13:19:12;11.60;99.90
27795;DHT22;15176;50.844;4.412;2023-04-16T13:21:57;11.70;99.90
27795;DHT22;15176;50.844;4.412;2023-04-16T13:24:23;11.60;99.90
27795;DHT22;15176;50.844;4.412;2023-04-16T13:26:49;11.60;99.90
27795;DHT22;15176;50.844;4.412;2023-04-16T13:29:16;11.70;99.90
27795;DHT22;15176;50.844;4.412;2023-04-16T13:31:42;11.90;99.90
27795;DHT22;15176;50.844;4.412;2023-04-16T13:34:08;11.90;99.90
27795;DHT22;15176;50.844;4.412;2023-04-16T13:36:35;12.00;99.90
27795;DHT22;15176;50.844;4.412;2023-04-16T13:39:00;12.00;99.90
27795;DHT22;15176;50.844;4.412;2023-04-16T13:41:29;12.00;99.90
27795;DHT22;15176;50.844;4.412;2023-04-16T13:43:55;12.30;99.90
27795;DHT22;15176;50.844;4.412;2023-04-16T13:46:20;12.40;99.90
27795;DHT22;15176;50.844;4.412;2023-04-16T13:48:46;12.30;99.90
27795;DHT22;15176;50.844;4.412;2023-04-16T13:51:12;12.40;99.90
27795;DHT22;15176;50.844;4.412;2023-04-16T13:53:40;12.30;99.90
27795;DHT22;15176;50.844;4.412;2023-04-16T13:56:05;12.50;99.90
27795;DHT22;15176;50.844;4.412;2023-04-16T13:58:32;12.60;99.90
27795;DHT22;15176;50.844;4.412;2023-04-16T14:00:58;12.60;99.90
27795;DHT22;15176;50.844;4.412;2023-04-16T14:03:24;12.70;99.90
27795;DHT22;15176;50.844;4.412;2023-04-16T14:05:51;12.80;99.90
27795;DHT22;15176;50.844;4.412;2023-04-16T14:08:17;12.80;99.90
27795;DHT22;15176;50.844;4.412;2023-04-16T14:10:46;12.70;99.90
27795;DHT22;15176;50.844;4.412;2023-04-16T14:13:12;12.50;99.90
27795;DHT22;15176;50.844;4.412;2023-04-16T14:15:39;12.60;99.90
27795;DHT22;15176;50.844;4.412;2023-04-16T14:18:05;12.40;99.90
27795;DHT22;15176;50.844;4.412;2023-04-16T14:20:32;12.30;99.90
27795;DHT22;15176;50.844;4.412;2023-04-16T14:22:58;12.40;99.90
27795;DHT22;15176;50.844;4.412;2023-04-16T14:25:23;12.50;99.90
27795;DHT22;15176;50.844;4.412;2023-04-16T14:27:49;12.50;99.90
27795;DHT22;15176;50.844;4.412;2023-04-16T14:30:15;12.60;99.90
27795;DHT22;15176;50.844;4.412;2023-04-16T14:32:42;12.60;99.90
27795;DHT22;15176;50.844;4.412;2023-04-16T14:35:08;12.70;99.90
27795;DHT22;15176;50.844;4.412;2023-04-16T14:37:35;12.90;99.90
27795;DHT22;15176;50.844;4.412;2023-04-16T14:40:01;13.10;99.90
27795;DHT22;15176;50.844;4.412;2023-04-16T14:42:31;13.10;99.90
27795;DHT22;15176;50.844;4.412;2023-04-16T14:44:58;13.00;99.90
27795;DHT22;15176;50.844;4.412;2023-04-16T14:47:24;13.10;99.90
27795;DHT22;15176;50.844;4.412;2023-04-16T14:49:50;13.30;99.90
27795;DHT22;15176;50.844;4.412;2023-04-16T14:52:16;13.30;99.90
27795;DHT22;15176;50.844;4.412;2023-04-16T14:54:41;13.20;99.90
27795;DHT22;15176;50.844;4.412;2023-04-16T14:57:07;12.90;99.90
27795;DHT22;15176;50.844;4.412;2023-04-16T14:59:33;13.10;99.90
27795;DHT22;15176;50.844;4.412;2023-04-16T15:01:58;13.10;99.90
27795;DHT22;15176;50.844;4.412;2023-04-16T15:04:24;13.30;99.90
27795;DHT22;15176;50.844;4.412;2023-04-16T15:06:51;13.40;99.90
27795;DHT22;15176;50.844;4.412;2023-04-16T15:09:17;13.30;99.90
27795;DHT22;15176;50.844;4.412;2023-04-16T15:11:42;13.20;99.90
27795;DHT22;15176;50.844;4.412;2023-04-16T15:14:08;13.30;99.90
27795;DHT22;15176;50.844;4.412;2023-04-16T15:16:35;13.30;99.90
27795;DHT22;15176;50.844;4.412;2023-04-16T15:19:00;13.20;99.90
27795;DHT22;15176;50.844;4.412;2023-04-16T15:21:28;13.00;99.90
27795;DHT22;15176;50.844;4.412;2023-04-16T15:23:53;12.90;99.90
27795;DHT22;15176;50.844;4.412;2023-04-16T15:26:19;12.90;99.90
27795;DHT22;15176;50.844;4.412;2023-04-16T15:28:45;13.00;99.90
27795;DHT22;15176;50.844;4.412;2023-04-16T15:31:11;13.10;99.90
27795;DHT22;15176;50.844;4.412;2023-04-16T15:33:38;13.20;99.90
27795;DHT22;15176;50.844;4.412;2023-04-16T15:36:04;12.90;99.90
27795;DHT22;15176;50.844;4.412;2023-04-16T15:38:29;13.10;99.90
27795;DHT22;15176;50.844;4.412;2023-04-16T15:40:58;13.10;99.90